createdAt,value
2022-12-26T00:01:40.176Z,79.06
2022-12-26T00:04:52.206Z,78.93
2022-12-26T00:07:56.220Z,78.94
2022-12-26T00:10:59.204Z,79.12
2022-12-26T00:14:11.514Z,79.07
2022-12-26T00:17:14.307Z,79.07
2022-12-26T00:20:17.154Z,79.27
2022-12-26T00:23:20.106Z,79.34
2022-12-26T00:26:24.739Z,79.16
2022-12-26T00:29:27.645Z,79.18
2022-12-26T00:32:30.459Z,79.44
2022-12-26T00:35:33.280Z,79.63
2022-12-26T00:38:37.668Z,79.40
2022-12-26T00:41:40.441Z,79.50
2022-12-26T00:44:43.233Z,79.73
2022-12-26T00:47:46.093Z,80.01
2022-12-26T00:50:48.917Z,80.09
2022-12-26T00:53:51.693Z,79.98
2022-12-26T00:56:54.531Z,79.95
2022-12-26T00:59:57.404Z,79.99
2022-12-26T01:03:00.404Z,79.98
2022-12-26T01:06:04.382Z,79.86
2022-12-26T01:09:07.226Z,79.80
2022-12-26T01:12:10.004Z,79.57
2022-12-26T01:15:12.816Z,79.70
2022-12-26T01:18:15.632Z,79.88
2022-12-26T01:21:18.432Z,79.94
2022-12-26T01:24:21.265Z,79.97
2022-12-26T01:27:26.031Z,79.78
2022-12-26T01:30:28.997Z,79.79
2022-12-26T01:33:32.615Z,79.77
2022-12-26T01:36:35.506Z,79.67
2022-12-26T01:39:38.456Z,79.77
2022-12-26T01:42:42.149Z,79.82
2022-12-26T01:45:50.857Z,79.76
2022-12-26T01:48:56.563Z,79.49
2022-12-26T01:52:06.455Z,79.61
2022-12-26T01:55:14.585Z,79.42
2022-12-26T01:58:25.039Z,79.43
2022-12-26T02:01:31.932Z,79.40
2022-12-26T02:04:57.564Z,79.69
2022-12-26T02:08:07.845Z,79.72
2022-12-26T02:11:24.200Z,79.67
2022-12-26T02:14:27.271Z,79.81
2022-12-26T02:17:30.848Z,79.78
2022-12-26T02:20:46.088Z,79.77
2022-12-26T02:24:07.338Z,79.98
2022-12-26T02:27:53.391Z,80.01
2022-12-26T02:31:21.711Z,80.11
2022-12-26T02:34:36.045Z,80.11
2022-12-26T02:38:12.984Z,80.23
2022-12-26T02:41:37.782Z,80.33
2022-12-26T02:45:07.302Z,80.43
2022-12-26T02:48:35.204Z,80.66
2022-12-26T02:52:35.131Z,80.70
2022-12-26T02:56:00.440Z,81.13
2022-12-26T02:59:57.295Z,81.19
2022-12-26T03:03:24.306Z,81.45
2022-12-26T03:06:50.054Z,81.47
2022-12-26T03:10:13.296Z,81.42
2022-12-26T03:13:23.355Z,81.60
2022-12-26T03:16:46.188Z,81.52
2022-12-26T03:20:01.053Z,81.67
2022-12-26T03:23:10.057Z,81.61
2022-12-26T03:26:35.697Z,81.70
2022-12-26T03:29:57.232Z,81.86
2022-12-26T03:33:00.176Z,81.94
2022-12-26T03:36:04.820Z,81.83
2022-12-26T03:39:46.350Z,81.90
2022-12-26T03:43:33.261Z,81.85
2022-12-26T03:47:32.599Z,81.70
2022-12-26T03:51:00.703Z,81.80
2022-12-26T03:54:29.433Z,81.92
2022-12-26T03:57:59.974Z,82.04
2022-12-26T04:01:29.226Z,81.85
2022-12-26T04:04:53.846Z,82.01
2022-12-26T04:08:19.752Z,82.07
2022-12-26T04:11:41.828Z,82.01
2022-12-26T04:15:18.956Z,81.80
2022-12-26T04:18:47.473Z,81.69
2022-12-26T04:22:13.401Z,81.67
2022-12-26T04:25:53.820Z,81.72
2022-12-26T04:29:15.849Z,81.77
2022-12-26T04:32:48.687Z,81.66
2022-12-26T04:36:18.029Z,81.69
2022-12-26T04:39:45.850Z,81.74
2022-12-26T04:43:47.588Z,81.79
2022-12-26T04:46:34.570Z,81.74
2022-12-26T04:50:03.789Z,81.88
2022-12-26T04:53:06.666Z,82.03
2022-12-26T04:56:11.133Z,81.79
2022-12-26T04:59:15.269Z,81.91
2022-12-26T05:02:36.755Z,82.02
2022-12-26T05:06:01.930Z,82.05
2022-12-26T05:09:23.642Z,82.16
2022-12-26T05:12:26.469Z,82.19
2022-12-26T05:15:49.224Z,82.26
2022-12-26T05:19:11.683Z,82.42
2022-12-26T05:22:33.503Z,82.40
2022-12-26T05:25:58.845Z,82.36
2022-12-26T05:29:03.901Z,82.50
2022-12-26T05:32:06.826Z,82.70
2022-12-26T05:35:09.774Z,82.61
2022-12-26T05:38:12.717Z,82.82
2022-12-26T05:41:16.708Z,82.75
2022-12-26T05:44:19.532Z,83.00
2022-12-26T05:47:22.309Z,83.20
2022-12-26T05:50:25.143Z,83.34
2022-12-26T05:53:29.385Z,83.30
2022-12-26T05:56:32.358Z,83.31
2022-12-26T05:59:35.144Z,83.33
2022-12-26T06:02:38.185Z,83.31
2022-12-26T06:05:41.209Z,83.52
2022-12-26T06:08:44.588Z,83.69
2022-12-26T06:11:49.088Z,83.73
2022-12-26T06:14:52.088Z,83.77
2022-12-26T06:17:56.771Z,83.52
2022-12-26T06:20:59.607Z,83.55
2022-12-26T06:24:07.704Z,83.26
2022-12-26T06:27:15.707Z,83.56
2022-12-26T06:31:39.356Z,83.47
2022-12-26T06:34:52.337Z,83.39
2022-12-26T06:37:55.159Z,83.20
2022-12-26T06:40:58.043Z,83.25
2022-12-26T06:44:01.066Z,83.23
2022-12-26T06:47:03.927Z,83.28
2022-12-26T06:50:12.302Z,82.91
2022-12-26T06:53:21.979Z,82.88
2022-12-26T06:57:10.916Z,82.97
2022-12-26T07:00:32.642Z,82.67
2022-12-26T07:03:35.951Z,82.47
2022-12-26T07:06:38.942Z,82.13
2022-12-26T07:09:41.841Z,82.03
2022-12-26T07:12:44.830Z,81.61
2022-12-26T07:15:47.754Z,81.48
2022-12-26T07:18:58.143Z,81.40
2022-12-26T07:22:00.969Z,80.75
2022-12-26T07:25:04.158Z,80.55
2022-12-26T07:28:07.060Z,80.27
2022-12-26T07:31:10.026Z,79.77
2022-12-26T07:34:13.312Z,79.15
2022-12-26T07:37:16.256Z,79.00
2022-12-26T07:40:19.093Z,78.69
2022-12-26T07:43:23.063Z,78.76
2022-12-26T07:46:26.111Z,78.54
2022-12-26T07:49:29.052Z,78.37
2022-12-26T07:52:31.898Z,78.36
2022-12-26T07:55:34.783Z,77.93
2022-12-26T07:58:37.695Z,78.45
2022-12-26T08:01:40.763Z,78.27
2022-12-26T08:04:44.142Z,77.94
2022-12-26T08:07:48.704Z,78.00
2022-12-26T08:11:02.789Z,78.45
2022-12-26T08:14:05.629Z,78.06
2022-12-26T08:17:09.290Z,77.89
2022-12-26T08:20:12.246Z,77.83
2022-12-26T08:23:15.156Z,77.79
2022-12-26T08:26:22.636Z,78.00
2022-12-26T08:29:25.773Z,77.90
2022-12-26T08:32:28.696Z,78.03
2022-12-26T08:35:31.539Z,77.97
2022-12-26T08:38:34.412Z,77.96
2022-12-26T08:41:37.235Z,78.01
2022-12-26T08:44:40.099Z,77.71
2022-12-26T08:47:42.890Z,77.89
2022-12-26T08:50:45.757Z,77.68
2022-12-26T08:53:50.398Z,77.27
2022-12-26T08:56:53.299Z,76.90
2022-12-26T08:59:56.191Z,76.56
2022-12-26T09:02:59.281Z,76.73
2022-12-26T09:06:06.270Z,76.25
2022-12-26T09:09:13.893Z,76.56
2022-12-26T09:12:16.691Z,76.58
2022-12-26T09:15:19.529Z,76.83
2022-12-26T09:18:22.313Z,76.91
2022-12-26T09:21:25.609Z,76.98
2022-12-26T09:24:28.557Z,77.27
2022-12-26T09:27:31.368Z,77.12
2022-12-26T09:30:34.154Z,77.16
2022-12-26T09:33:39.835Z,77.30
2022-12-26T09:36:42.634Z,77.38
2022-12-26T09:39:45.446Z,77.24
2022-12-26T09:43:23.667Z,77.04
2022-12-26T09:46:36.878Z,76.91
2022-12-26T09:49:48.870Z,77.00
2022-12-26T09:52:57.059Z,76.99
2022-12-26T09:56:08.658Z,76.77
2022-12-26T09:59:20.186Z,76.88
2022-12-26T10:02:24.699Z,76.79
2022-12-26T10:05:49.004Z,77.14
2022-12-26T10:09:20.088Z,77.33
2022-12-26T10:12:54.262Z,77.47
2022-12-26T10:16:19.098Z,77.30
2022-12-26T10:19:34.188Z,77.45
2022-12-26T10:23:19.579Z,77.47
2022-12-26T10:26:29.320Z,77.47
2022-12-26T10:29:42.536Z,77.53
2022-12-26T10:32:49.571Z,77.82
2022-12-26T10:35:52.589Z,77.86
2022-12-26T10:38:59.246Z,77.83
2022-12-26T10:42:14.596Z,77.88
2022-12-26T10:45:20.353Z,77.64
2022-12-26T10:48:27.281Z,76.85
2022-12-26T10:51:31.182Z,75.53
2022-12-26T10:54:34.544Z,75.33
2022-12-26T10:57:37.944Z,75.47
2022-12-26T11:00:40.833Z,75.12
2022-12-26T11:03:55.342Z,74.88
2022-12-26T11:06:59.316Z,74.74
2022-12-26T11:10:03.379Z,74.42
2022-12-26T11:13:20.522Z,74.57
2022-12-26T11:16:27.724Z,74.89
2022-12-26T11:19:42.871Z,74.36
2022-12-26T11:22:47.049Z,74.15
2022-12-26T11:25:58.974Z,74.33
2022-12-26T11:29:11.696Z,74.70
2022-12-26T11:32:20.479Z,74.70
2022-12-26T11:35:27.613Z,74.86
2022-12-26T11:38:44.143Z,74.39
2022-12-26T11:41:49.369Z,74.27
2022-12-26T11:44:55.434Z,74.17
2022-12-26T11:48:01.192Z,73.87
2022-12-26T11:51:04.305Z,73.72
2022-12-26T11:54:20.070Z,73.33
2022-12-26T11:57:30.529Z,73.73
2022-12-26T12:00:59.635Z,73.54
2022-12-26T12:04:05.647Z,73.84
2022-12-26T12:07:32.385Z,73.39
2022-12-26T12:11:01.854Z,72.70
2022-12-26T12:14:14.786Z,72.75
2022-12-26T12:18:02.920Z,71.64
2022-12-26T12:21:13.146Z,71.07
2022-12-26T12:24:39.003Z,70.71
2022-12-26T12:28:13.236Z,71.35
2022-12-26T12:31:31.603Z,70.53
2022-12-26T12:39:43.885Z,69.84
2022-12-26T12:43:19.004Z,69.78
2022-12-26T12:46:34.127Z,69.84
2022-12-26T12:49:52.854Z,69.56
2022-12-26T12:53:08.024Z,69.95
2022-12-26T12:56:25.663Z,69.21
2022-12-26T12:59:50.751Z,69.73
2022-12-26T13:03:25.883Z,69.76
2022-12-26T13:06:36.854Z,69.24
2022-12-26T13:09:48.151Z,69.46
2022-12-26T13:12:53.476Z,69.40
2022-12-26T13:16:05.392Z,69.75
2022-12-26T13:19:24.640Z,70.57
2022-12-26T13:23:00.703Z,71.01
2022-12-26T13:26:15.498Z,70.74
2022-12-26T13:29:32.192Z,70.49
2022-12-26T13:32:35.189Z,70.80
2022-12-26T13:36:01.483Z,70.04
2022-12-26T13:39:04.349Z,70.51
2022-12-26T13:42:36.579Z,71.19
2022-12-26T13:45:42.665Z,71.32
2022-12-26T13:48:45.450Z,71.15
2022-12-26T13:51:50.878Z,71.01
2022-12-26T13:54:53.695Z,71.41
2022-12-26T13:58:19.337Z,71.41
2022-12-26T14:01:26.099Z,71.36
2022-12-26T14:04:51.961Z,71.03
2022-12-26T14:08:04.928Z,71.48
2022-12-26T14:11:45.843Z,71.57
2022-12-26T14:14:58.829Z,72.08
2022-12-26T14:18:05.036Z,72.38
2022-12-26T14:21:21.089Z,72.71
2022-12-26T14:24:50.992Z,72.82
2022-12-26T14:27:53.681Z,73.23
2022-12-26T14:31:13.925Z,73.40
2022-12-26T14:34:19.884Z,73.29
2022-12-26T14:37:30.444Z,73.30
2022-12-26T14:40:37.057Z,73.36
2022-12-26T14:43:41.695Z,73.49
2022-12-26T14:46:44.438Z,73.66
2022-12-26T14:49:47.760Z,73.13
2022-12-26T14:52:50.778Z,73.15
2022-12-26T14:55:58.411Z,73.41
2022-12-26T14:59:33.241Z,73.15
2022-12-26T15:02:38.952Z,73.33
2022-12-26T15:05:47.192Z,73.16
2022-12-26T15:09:11.538Z,73.25
2022-12-26T15:12:38.585Z,73.66
2022-12-26T15:15:50.450Z,73.58
2022-12-26T15:19:12.129Z,73.64
2022-12-26T15:22:34.208Z,74.00
2022-12-26T15:26:03.317Z,74.44
2022-12-26T15:29:09.131Z,74.61
2022-12-26T15:32:28.123Z,74.86
2022-12-26T15:35:44.086Z,75.22
2022-12-26T15:39:21.779Z,75.52
2022-12-26T15:42:46.174Z,75.54
2022-12-26T15:46:00.695Z,75.77
2022-12-26T15:49:46.484Z,76.13
2022-12-26T15:53:10.049Z,76.27
2022-12-26T15:56:53.392Z,76.55
2022-12-26T16:00:35.926Z,77.06
2022-12-26T16:03:49.697Z,78.80
2022-12-26T16:07:12.179Z,79.22
2022-12-26T16:10:38.286Z,80.22
2022-12-26T16:13:56.828Z,80.71
2022-12-26T16:17:15.154Z,80.87
2022-12-26T16:20:50.680Z,81.17
2022-12-26T16:23:59.667Z,81.70
2022-12-26T16:27:06.821Z,82.78
2022-12-26T16:30:23.258Z,82.48
2022-12-26T16:33:29.290Z,83.52
2022-12-26T16:36:33.412Z,83.13
2022-12-26T16:39:36.267Z,82.98
2022-12-26T16:42:43.119Z,83.13
2022-12-26T16:45:49.349Z,83.38
2022-12-26T16:49:00.686Z,84.20
2022-12-26T16:52:04.063Z,84.64
2022-12-26T16:55:34.591Z,84.42
2022-12-26T16:58:38.385Z,84.78
2022-12-26T17:01:41.771Z,85.36
2022-12-26T17:05:00.745Z,85.19
2022-12-26T17:08:04.616Z,84.86
2022-12-26T17:11:07.700Z,85.89
2022-12-26T17:14:20.277Z,85.59
2022-12-26T17:17:23.141Z,85.93
2022-12-26T17:20:33.749Z,86.05
2022-12-26T17:23:43.106Z,86.08
2022-12-26T17:26:51.888Z,87.01
2022-12-26T17:30:19.664Z,86.98
2022-12-26T17:33:29.144Z,86.97
2022-12-26T17:37:08.715Z,87.03
2022-12-26T17:40:06.190Z,86.98
2022-12-26T17:43:12.090Z,86.88
2022-12-26T17:46:16.900Z,86.63
2022-12-26T17:49:19.752Z,86.48
2022-12-26T17:52:29.164Z,86.42
2022-12-26T17:55:32.258Z,86.38
2022-12-26T17:58:35.177Z,86.15
2022-12-26T18:01:38.370Z,86.28
2022-12-26T18:04:41.826Z,86.06
2022-12-26T18:07:46.326Z,85.81
2022-12-26T18:10:49.188Z,85.82
2022-12-26T18:13:51.988Z,85.86
2022-12-26T18:16:54.902Z,85.70
2022-12-26T18:19:57.867Z,85.34
2022-12-26T18:23:01.227Z,85.00
2022-12-26T18:26:08.419Z,85.98
2022-12-26T18:29:11.674Z,86.46
2022-12-26T18:32:27.093Z,86.19
2022-12-26T18:35:30.129Z,86.25
2022-12-26T18:38:32.970Z,86.04
2022-12-26T18:41:36.311Z,86.58
2022-12-26T18:44:40.079Z,86.48
2022-12-26T18:47:42.995Z,86.91
2022-12-26T18:50:46.995Z,86.64
2022-12-26T18:53:50.263Z,86.59
2022-12-26T18:56:53.074Z,87.04
2022-12-26T18:59:55.936Z,86.76
2022-12-26T19:02:59.198Z,86.56
2022-12-26T19:06:02.199Z,86.47
2022-12-26T19:09:07.023Z,86.25
2022-12-26T19:12:09.926Z,86.26
2022-12-26T19:15:14.495Z,86.05
2022-12-26T19:18:17.289Z,85.93
2022-12-26T19:21:20.163Z,85.89
2022-12-26T19:24:23.427Z,86.04
2022-12-26T19:27:26.346Z,85.98
2022-12-26T19:30:32.354Z,85.89
2022-12-26T19:33:40.059Z,85.73
2022-12-26T19:36:43.014Z,86.08
2022-12-26T19:39:45.964Z,85.91
2022-12-26T19:42:48.919Z,86.02
2022-12-26T19:45:59.657Z,86.33
2022-12-26T19:49:02.850Z,85.89
2022-12-26T19:52:05.725Z,85.90
2022-12-26T19:55:12.033Z,85.92
2022-12-26T19:58:15.031Z,86.11
2022-12-26T20:01:23.981Z,85.84
2022-12-26T20:04:27.009Z,85.52
2022-12-26T20:07:30.227Z,84.61
2022-12-26T20:10:33.924Z,83.89
2022-12-26T20:13:36.746Z,83.44
2022-12-26T20:17:04.980Z,83.52
2022-12-26T20:20:03.610Z,83.41
2022-12-26T20:23:06.755Z,82.76
2022-12-26T20:26:13.308Z,82.75
2022-12-26T20:29:16.571Z,82.44
2022-12-26T20:32:19.436Z,82.60
2022-12-26T20:35:22.226Z,82.31
2022-12-26T20:38:25.058Z,82.10
2022-12-26T20:41:29.018Z,82.32
2022-12-26T20:44:31.872Z,82.25
2022-12-26T20:47:35.053Z,82.05
2022-12-26T20:50:38.020Z,81.96
2022-12-26T20:53:41.479Z,81.92
2022-12-26T20:56:44.965Z,81.87
2022-12-26T20:59:47.924Z,81.88
2022-12-26T21:02:53.456Z,81.65
2022-12-26T21:06:15.826Z,81.58
2022-12-26T21:09:19.747Z,81.65
2022-12-26T21:12:22.582Z,81.66
2022-12-26T21:15:25.403Z,81.44
2022-12-26T21:18:28.290Z,81.41
2022-12-26T21:21:33.657Z,81.45
2022-12-26T21:24:36.571Z,81.38
2022-12-26T21:27:42.873Z,81.39
2022-12-26T21:30:46.203Z,81.37
2022-12-26T21:33:49.063Z,81.44
2022-12-26T21:37:10.651Z,81.28
2022-12-26T21:40:13.541Z,81.24
2022-12-26T21:43:16.976Z,81.22
2022-12-26T21:46:20.689Z,81.18
2022-12-26T21:49:27.315Z,80.99
2022-12-26T21:52:30.926Z,81.12
2022-12-26T21:55:36.490Z,81.03
2022-12-26T21:58:59.450Z,80.96
2022-12-26T22:02:02.487Z,81.04
2022-12-26T22:05:05.775Z,81.27
2022-12-26T22:08:11.459Z,81.26
2022-12-26T22:11:35.980Z,81.02
2022-12-26T22:14:38.816Z,81.11
2022-12-26T22:17:41.636Z,81.29
2022-12-26T22:20:46.286Z,81.14
2022-12-26T22:23:54.449Z,81.27
2022-12-26T22:26:57.329Z,81.35
2022-12-26T22:30:00.254Z,81.36
2022-12-26T22:33:03.352Z,81.40
2022-12-26T22:36:08.222Z,81.41
2022-12-26T22:39:17.154Z,81.37
2022-12-26T22:42:19.991Z,81.29
2022-12-26T22:45:22.957Z,81.48
2022-12-26T22:48:25.902Z,81.22
2022-12-26T22:51:28.768Z,81.15
2022-12-26T22:54:31.894Z,81.22
2022-12-26T22:57:34.847Z,81.18
2022-12-26T23:00:37.759Z,81.15
2022-12-26T23:03:40.739Z,81.09
2022-12-26T23:06:43.925Z,81.14
2022-12-26T23:09:47.454Z,80.92
2022-12-26T23:12:51.334Z,80.91
2022-12-26T23:16:14.548Z,80.76
2022-12-26T23:20:02.193Z,80.86
2022-12-26T23:23:05.277Z,80.92
2022-12-26T23:26:08.211Z,80.79
2022-12-26T23:29:32.290Z,80.73
2022-12-26T23:32:36.424Z,80.56
2022-12-26T23:35:40.223Z,80.91
2022-12-26T23:38:43.172Z,80.65
2022-12-26T23:41:46.280Z,80.66
2022-12-26T23:44:49.152Z,80.45
2022-12-26T23:47:52.212Z,80.51
2022-12-26T23:51:06.761Z,80.45
2022-12-26T23:54:10.086Z,80.36
2022-12-26T23:57:13.211Z,80.18
